sensor_id;sensor_type;location;lat;lon;timestamp;pressure;altitude;pressure_sealevel;temperature;humidity
46412;BME280;32113;42.012;24.870;2023-03-14T00:00:32;99469.19;;;7.39;36.02
46412;BME280;32113;42.012;24.870;2023-03-14T00:02:58;99475.16;;;7.42;36.32
46412;BME280;32113;42.012;24.870;2023-03-14T00:05:24;99469.22;;;7.45;36.69
46412;BME280;32113;42.012;24.870;2023-03-14T00:07:49;99467.63;;;7.55;36.53
46412;BME280;32113;42.012;24.870;2023-03-14T00:10:15;99467.72;;;7.66;35.93
46412;BME280;32113;42.012;24.870;2023-03-14T00:12:41;99470.25;;;7.62;35.89
46412;BME280;32113;42.012;24.870;2023-03-14T00:15:07;99468.41;;;7.47;36.24
46412;BME280;32113;42.012;24.870;2023-03-14T00:17:34;99469.19;;;7.42;36.01
46412;BME280;32113;42.012;24.870;2023-03-14T00:20:00;99463.28;;;7.47;36.68
46412;BME280;32113;42.012;24.870;2023-03-14T00:22:31;99451.41;;;7.53;35.73
46412;BME280;32113;42.012;24.870;2023-03-14T00:24:57;99448.91;;;7.56;36.71
46412;BME280;32113;42.012;24.870;2023-03-14T00:27:22;99458.19;;;7.47;36.77
46412;BME280;32113;42.012;24.870;2023-03-14T00:29:48;99452.25;;;7.47;36.79
46412;BME280;32113;42.012;24.870;2023-03-14T00:32:13;99457.34;;;7.48;37.21
46412;BME280;32113;42.012;24.870;2023-03-14T00:34:39;99443.72;;;7.48;37.24
46412;BME280;32113;42.012;24.870;2023-03-14T00:37:05;99440.28;;;7.43;37.01
46412;BME280;32113;42.012;24.870;2023-03-14T00:39:30;99436.00;;;7.42;37.36
46412;BME280;32113;42.012;24.870;2023-03-14T00:41:55;99427.56;;;7.49;37.51
46412;BME280;32113;42.012;24.870;2023-03-14T00:44:21;99430.09;;;7.47;37.61
46412;BME280;32113;42.012;24.870;2023-03-14T00:46:46;99418.19;;;7.51;36.92
46412;BME280;32113;42.012;24.870;2023-03-14T00:49:12;99414.84;;;7.52;36.73
46412;BME280;32113;42.012;24.870;2023-03-14T00:51:37;99413.13;;;7.54;36.74
46412;BME280;32113;42.012;24.870;2023-03-14T00:54:02;99407.97;;;7.46;37.00
46412;BME280;32113;42.012;24.870;2023-03-14T00:56:28;99401.09;;;7.41;37.91
46412;BME280;32113;42.012;24.870;2023-03-14T00:58:56;99404.53;;;7.41;37.47
46412;BME280;32113;42.012;24.870;2023-03-14T01:01:22;99386.59;;;7.33;37.77
46412;BME280;32113;42.012;24.870;2023-03-14T01:03:50;99387.44;;;7.31;37.86
46412;BME280;32113;42.012;24.870;2023-03-14T01:06:18;99386.53;;;7.27;37.59
46412;BME280;32113;42.012;24.870;2023-03-14T01:08:45;99383.06;;;7.20;38.38
46412;BME280;32113;42.012;24.870;2023-03-14T01:11:31;99389.06;;;7.22;37.97
46412;BME280;32113;42.012;24.870;2023-03-14T01:13:57;99381.31;;;7.13;37.97
46412;BME280;32113;42.012;24.870;2023-03-14T01:16:25;99381.31;;;7.13;37.88
46412;BME280;32113;42.012;24.870;2023-03-14T01:18:51;99386.44;;;7.15;37.54
46412;BME280;32113;42.012;24.870;2023-03-14T01:21:19;99383.84;;;7.12;38.22
46412;BME280;32113;42.012;24.870;2023-03-14T01:23:46;99380.41;;;7.06;37.95
46412;BME280;32113;42.012;24.870;2023-03-14T01:26:14;99374.53;;;7.14;38.13
46412;BME280;32113;42.012;24.870;2023-03-14T01:28:40;99374.44;;;7.04;37.93
46412;BME280;32113;42.012;24.870;2023-03-14T01:31:08;99380.19;;;6.86;38.84
46412;BME280;32113;42.012;24.870;2023-03-14T01:33:34;99372.44;;;6.77;38.16
46412;BME280;32113;42.012;24.870;2023-03-14T01:36:00;99361.22;;;6.59;38.91
46412;BME280;32113;42.012;24.870;2023-03-14T01:38:28;99353.41;;;6.43;39.47
46412;BME280;32113;42.012;24.870;2023-03-14T01:40:54;99355.13;;;6.43;39.75
46412;BME280;32113;42.012;24.870;2023-03-14T01:43:20;99355.13;;;6.46;40.11
46412;BME280;32113;42.012;24.870;2023-03-14T01:48:25;99358.47;;;6.42;39.90
46412;BME280;32113;42.012;24.870;2023-03-14T01:50:51;99355.03;;;6.37;39.72
46412;BME280;32113;42.012;24.870;2023-03-14T01:53:17;99352.63;;;6.49;40.11
46412;BME280;32113;42.012;24.870;2023-03-14T01:55:49;99356.94;;;6.53;39.92
46412;BME280;32113;42.012;24.870;2023-03-14T01:58:15;99356.06;;;6.53;39.78
46412;BME280;32113;42.012;24.870;2023-03-14T02:00:42;99357.75;;;6.54;39.67
46412;BME280;32113;42.012;24.870;2023-03-14T02:03:14;99354.44;;;6.60;39.69
46412;BME280;32113;42.012;24.870;2023-03-14T02:05:41;99349.44;;;6.69;39.73
46412;BME280;32113;42.012;24.870;2023-03-14T02:08:11;99347.78;;;6.76;39.09
46412;BME280;32113;42.012;24.870;2023-03-14T02:10:41;99350.91;;;6.48;39.25
46412;BME280;32113;42.012;24.870;2023-03-14T02:13:08;99355.13;;;6.46;39.49
46412;BME280;32113;42.012;24.870;2023-03-14T02:15:34;99354.22;;;6.41;39.48
46412;BME280;32113;42.012;24.870;2023-03-14T02:18:01;99352.38;;;6.29;40.45
46412;BME280;32113;42.012;24.870;2023-03-14T02:23:42;99351.47;;;6.22;39.94
46412;BME280;32113;42.012;24.870;2023-03-14T02:26:23;99347.28;;;6.27;40.31
46412;BME280;32113;42.012;24.870;2023-03-14T02:28:53;99343.03;;;6.28;40.31
46412;BME280;32113;42.012;24.870;2023-03-14T02:31:19;99343.13;;;6.36;40.71
46412;BME280;32113;42.012;24.870;2023-03-14T02:33:46;99336.34;;;6.38;40.08
46412;BME280;32113;42.012;24.870;2023-03-14T02:36:14;99333.63;;;6.22;40.27
46412;BME280;32113;42.012;24.870;2023-03-14T02:39:26;99329.38;;;6.21;40.60
46412;BME280;32113;42.012;24.870;2023-03-14T02:41:25;99331.81;;;6.12;40.71
46412;BME280;32113;42.012;24.870;2023-03-14T02:43:50;99330.66;;;5.91;40.60
46412;BME280;32113;42.012;24.870;2023-03-14T02:46:18;99334.94;;;5.95;41.00
46412;BME280;32113;42.012;24.870;2023-03-14T02:49:08;99331.72;;;6.07;40.67
46412;BME280;32113;42.012;24.870;2023-03-14T02:51:32;99331.75;;;6.06;40.71
46412;BME280;32113;42.012;24.870;2023-03-14T02:53:58;99339.41;;;6.10;40.30
46412;BME280;32113;42.012;24.870;2023-03-14T02:56:23;99337.84;;;6.20;40.78
46412;BME280;32113;42.012;24.870;2023-03-14T02:58:49;99346.28;;;6.16;40.88
46412;BME280;32113;42.012;24.870;2023-03-14T03:01:14;99348.13;;;6.26;40.41
46412;BME280;32113;42.012;24.870;2023-03-14T03:03:40;99345.72;;;6.39;40.27
46412;BME280;32113;42.012;24.870;2023-03-14T03:06:05;99350.88;;;6.45;39.25
46412;BME280;32113;42.012;24.870;2023-03-14T03:08:31;99346.47;;;6.31;40.02
46412;BME280;32113;42.012;24.870;2023-03-14T03:10:57;99354.03;;;6.24;40.18
46412;BME280;32113;42.012;24.870;2023-03-14T03:13:23;99356.56;;;6.22;40.13
46412;BME280;32113;42.012;24.870;2023-03-14T03:15:48;99360.00;;;6.24;40.21
46412;BME280;32113;42.012;24.870;2023-03-14T03:18:14;99360.06;;;6.30;40.42
46412;BME280;32113;42.012;24.870;2023-03-14T03:20:39;99359.25;;;6.33;40.84
46412;BME280;32113;42.012;24.870;2023-03-14T03:23:05;99350.69;;;6.31;40.40
46412;BME280;32113;42.012;24.870;2023-03-14T03:25:30;99358.31;;;6.26;40.07
46412;BME280;32113;42.012;24.870;2023-03-14T03:27:56;99360.00;;;6.26;40.17
46412;BME280;32113;42.012;24.870;2023-03-14T03:30:22;99367.53;;;6.18;40.03
46412;BME280;32113;42.012;24.870;2023-03-14T03:32:47;99371.75;;;6.14;40.54
46412;BME280;32113;42.012;24.870;2023-03-14T03:35:13;99367.47;;;6.12;40.72
46412;BME280;32113;42.012;24.870;2023-03-14T03:37:39;99360.63;;;6.08;40.68
46412;BME280;32113;42.012;24.870;2023-03-14T03:40:05;99364.84;;;6.06;40.84
46412;BME280;32113;42.012;24.870;2023-03-14T03:42:32;99352.03;;;6.02;40.96
46412;BME280;32113;42.012;24.870;2023-03-14T03:44:59;99360.44;;;5.94;40.63
46412;BME280;32113;42.012;24.870;2023-03-14T03:47:25;99357.47;;;5.67;41.20
46412;BME280;32113;42.012;24.870;2023-03-14T03:49:50;99360.50;;;5.41;41.75
46412;BME280;32113;42.012;24.870;2023-03-14T03:52:16;99362.16;;;5.37;41.96
46412;BME280;32113;42.012;24.870;2023-03-14T03:54:41;99357.13;;;5.42;41.96
46412;BME280;32113;42.012;24.870;2023-03-14T03:57:07;99365.53;;;5.38;41.93
46412;BME280;32113;42.012;24.870;2023-03-14T03:59:32;99364.72;;;5.41;41.99
46412;BME280;32113;42.012;24.870;2023-03-14T04:01:57;99368.84;;;5.31;42.53
46412;BME280;32113;42.012;24.870;2023-03-14T04:04:23;99363.78;;;5.34;42.46
46412;BME280;32113;42.012;24.870;2023-03-14T04:06:48;99369.78;;;5.37;42.79
46412;BME280;32113;42.012;24.870;2023-03-14T04:09:14;99367.25;;;5.39;42.22
46412;BME280;32113;42.012;24.870;2023-03-14T04:11:40;99363.88;;;5.38;41.93
46412;BME280;32113;42.012;24.870;2023-03-14T04:14:06;99365.50;;;5.36;42.06
46412;BME280;32113;42.012;24.870;2023-03-14T04:16:31;99346.66;;;5.23;42.67
46412;BME280;32113;42.012;24.870;2023-03-14T04:18:57;99344.63;;;5.04;43.20
46412;BME280;32113;42.012;24.870;2023-03-14T04:21:23;99336.00;;;4.94;43.59
46412;BME280;32113;42.012;24.870;2023-03-14T04:23:49;99330.56;;;4.75;44.06
46412;BME280;32113;42.012;24.870;2023-03-14T04:26:15;99323.59;;;4.63;44.26
46412;BME280;32113;42.012;24.870;2023-03-14T04:28:41;99328.28;;;4.41;44.69
46412;BME280;32113;42.012;24.870;2023-03-14T04:31:11;99313.25;;;4.52;44.85
46412;BME280;32113;42.012;24.870;2023-03-14T04:33:36;99301.34;;;4.51;44.78
46412;BME280;32113;42.012;24.870;2023-03-14T04:36:03;99295.94;;;4.32;45.62
46412;BME280;32113;42.012;24.870;2023-03-14T04:38:28;99299.53;;;4.44;45.29
46412;BME280;32113;42.012;24.870;2023-03-14T04:40:54;99300.31;;;4.40;45.88
46412;BME280;32113;42.012;24.870;2023-03-14T04:43:19;99309.56;;;4.38;45.56
46412;BME280;32113;42.012;24.870;2023-03-14T04:45:44;99302.09;;;4.44;45.44
46412;BME280;32113;42.012;24.870;2023-03-14T04:48:10;99304.53;;;4.39;45.58
46412;BME280;32113;42.012;24.870;2023-03-14T04:50:35;99303.72;;;4.42;45.52
46412;BME280;32113;42.012;24.870;2023-03-14T04:53:01;99311.69;;;4.60;45.31
46412;BME280;32113;42.012;24.870;2023-03-14T04:55:26;99313.44;;;4.63;45.28
46412;BME280;32113;42.012;24.870;2023-03-14T04:57:52;99318.66;;;4.72;45.19
46412;BME280;32113;42.012;24.870;2023-03-14T05:00:17;99320.44;;;4.77;45.07
46412;BME280;32113;42.012;24.870;2023-03-14T05:02:44;99326.47;;;4.82;44.62
46412;BME280;32113;42.012;24.870;2023-03-14T05:05:10;99335.16;;;4.93;44.13
46412;BME280;32113;42.012;24.870;2023-03-14T05:07:35;99326.91;;;5.08;44.77
46412;BME280;32113;42.012;24.870;2023-03-14T05:10:00;99330.56;;;5.24;44.03
46412;BME280;32113;42.012;24.870;2023-03-14T05:12:26;99340.88;;;5.34;43.13
46412;BME280;32113;42.012;24.870;2023-03-14T05:14:51;99331.75;;;5.48;43.25
46412;BME280;32113;42.012;24.870;2023-03-14T05:17:17;99329.47;;;5.64;42.64
46412;BME280;32113;42.012;24.870;2023-03-14T05:19:43;99331.22;;;5.71;42.46
46412;BME280;32113;42.012;24.870;2023-03-14T05:22:09;99324.75;;;5.92;42.09
46412;BME280;32113;42.012;24.870;2023-03-14T05:24:35;99328.31;;;6.05;42.05
46412;BME280;32113;42.012;24.870;2023-03-14T05:27:00;99328.38;;;6.11;41.99
46412;BME280;32113;42.012;24.870;2023-03-14T05:29:26;99328.53;;;6.22;42.31
46412;BME280;32113;42.012;24.870;2023-03-14T05:31:51;99329.50;;;6.32;41.82
46412;BME280;32113;42.012;24.870;2023-03-14T05:34:17;99331.31;;;6.42;42.04
46412;BME280;32113;42.012;24.870;2023-03-14T05:36:42;99327.88;;;6.42;42.07
46412;BME280;32113;42.012;24.870;2023-03-14T05:39:07;99342.44;;;6.49;42.14
46412;BME280;32113;42.012;24.870;2023-03-14T05:41:33;99345.81;;;6.50;41.43
46412;BME280;32113;42.012;24.870;2023-03-14T05:43:58;99345.94;;;6.57;41.99
46412;BME280;32113;42.012;24.870;2023-03-14T05:46:24;99343.47;;;6.67;41.79
46412;BME280;32113;42.012;24.870;2023-03-14T05:48:49;99344.34;;;6.70;41.40
46412;BME280;32113;42.012;24.870;2023-03-14T05:51:14;99345.22;;;6.74;41.39
46412;BME280;32113;42.012;24.870;2023-03-14T05:53:40;99346.84;;;6.66;41.30
46412;BME280;32113;42.012;24.870;2023-03-14T05:56:05;99342.66;;;6.69;41.65
46412;BME280;32113;42.012;24.870;2023-03-14T05:58:31;99331.63;;;6.74;41.30
46412;BME280;32113;42.012;24.870;2023-03-14T06:00:56;99340.94;;;6.72;40.77
46412;BME280;32113;42.012;24.870;2023-03-14T06:03:22;99340.16;;;6.77;41.58
46412;BME280;32113;42.012;24.870;2023-03-14T06:05:50;99329.13;;;6.80;40.89
46412;BME280;32113;42.012;24.870;2023-03-14T06:08:16;99337.47;;;6.63;41.27
46412;BME280;32113;42.012;24.870;2023-03-14T06:10:41;99342.59;;;6.65;41.56
46412;BME280;32113;42.012;24.870;2023-03-14T06:13:07;99345.06;;;6.59;41.76
46412;BME280;32113;42.012;24.870;2023-03-14T06:15:32;99342.47;;;6.54;42.61
46412;BME280;32113;42.012;24.870;2023-03-14T06:17:58;99340.81;;;6.56;42.40
46412;BME280;32113;42.012;24.870;2023-03-14T06:20:24;99340.06;;;6.68;42.33
46412;BME280;32113;42.012;24.870;2023-03-14T06:22:49;99346.91;;;6.72;42.50
46412;BME280;32113;42.012;24.870;2023-03-14T06:25:15;99345.19;;;6.68;42.69
46412;BME280;32113;42.012;24.870;2023-03-14T06:27:40;99340.16;;;6.76;42.22
46412;BME280;32113;42.012;24.870;2023-03-14T06:30:07;99336.78;;;6.78;42.05
46412;BME280;32113;42.012;24.870;2023-03-14T06:32:32;99334.19;;;6.77;41.78
46412;BME280;32113;42.012;24.870;2023-03-14T06:34:58;99336.81;;;6.81;41.77
46412;BME280;32113;42.012;24.870;2023-03-14T06:37:29;99334.28;;;6.83;41.32
46412;BME280;32113;42.012;24.870;2023-03-14T06:39:55;99334.19;;;6.75;41.25
46412;BME280;32113;42.012;24.870;2023-03-14T06:42:21;99333.41;;;6.82;41.42
46412;BME280;32113;42.012;24.870;2023-03-14T06:44:47;99333.47;;;6.89;41.96
46412;BME280;32113;42.012;24.870;2023-03-14T06:47:12;99333.50;;;6.92;42.53
46412;BME280;32113;42.012;24.870;2023-03-14T06:49:38;99342.00;;;6.91;42.34
46412;BME280;32113;42.012;24.870;2023-03-14T06:52:04;99343.66;;;6.87;42.39
46412;BME280;32113;42.012;24.870;2023-03-14T06:54:29;99336.94;;;6.95;41.99
46412;BME280;32113;42.012;24.870;2023-03-14T06:56:54;99336.97;;;7.02;42.83
46412;BME280;32113;42.012;24.870;2023-03-14T06:59:20;99335.31;;;7.08;42.41
46412;BME280;32113;42.012;24.870;2023-03-14T07:01:46;99331.97;;;7.14;42.75
46412;BME280;32113;42.012;24.870;2023-03-14T07:04:13;99321.81;;;7.17;42.03
46412;BME280;32113;42.012;24.870;2023-03-14T07:06:39;99319.19;;;7.08;41.89
46412;BME280;32113;42.012;24.870;2023-03-14T07:09:09;99314.91;;;7.08;42.60
46412;BME280;32113;42.012;24.870;2023-03-14T07:11:35;99311.59;;;7.17;42.08
46412;BME280;32113;42.012;24.870;2023-03-14T07:14:00;99315.91;;;7.26;42.20
46412;BME280;32113;42.012;24.870;2023-03-14T07:16:26;99311.66;;;7.25;41.91
46412;BME280;32113;42.012;24.870;2023-03-14T07:18:53;99306.63;;;7.34;42.29
46412;BME280;32113;42.012;24.870;2023-03-14T07:21:19;99312.66;;;7.44;42.66
46412;BME280;32113;42.012;24.870;2023-03-14T07:23:44;99306.69;;;7.48;42.06
46412;BME280;32113;42.012;24.870;2023-03-14T07:26:10;99301.66;;;7.56;42.36
46412;BME280;32113;42.012;24.870;2023-03-14T07:28:35;99300.78;;;7.56;41.13
46412;BME280;32113;42.012;24.870;2023-03-14T07:31:00;99296.53;;;7.58;41.69
46412;BME280;32113;42.012;24.870;2023-03-14T07:33:26;99295.75;;;7.67;41.48
46412;BME280;32113;42.012;24.870;2023-03-14T07:35:51;99289.78;;;7.66;41.06
46412;BME280;32113;42.012;24.870;2023-03-14T07:38:17;99288.13;;;7.74;41.00
46412;BME280;32113;42.012;24.870;2023-03-14T07:40:43;99291.56;;;7.80;41.86
46412;BME280;32113;42.012;24.870;2023-03-14T07:43:08;99281.38;;;7.91;40.47
46412;BME280;32113;42.012;24.870;2023-03-14T07:45:33;99282.28;;;7.99;39.85
46412;BME280;32113;42.012;24.870;2023-03-14T07:47:59;99278.06;;;8.06;40.14
46412;BME280;32113;42.012;24.870;2023-03-14T07:50:25;99276.34;;;8.15;39.93
46412;BME280;32113;42.012;24.870;2023-03-14T07:52:51;99268.72;;;8.23;39.79
46412;BME280;32113;42.012;24.870;2023-03-14T07:55:17;99269.59;;;8.30;39.48
46412;BME280;32113;42.012;24.870;2023-03-14T07:57:42;99264.47;;;8.30;40.07
46412;BME280;32113;42.012;24.870;2023-03-14T08:00:08;99255.97;;;8.37;39.23
46412;BME280;32113;42.012;24.870;2023-03-14T08:02:34;99255.94;;;8.31;39.89
46412;BME280;32113;42.012;24.870;2023-03-14T08:05:01;99252.56;;;8.34;39.27
46412;BME280;32113;42.012;24.870;2023-03-14T08:07:26;99252.56;;;8.45;39.32
46412;BME280;32113;42.012;24.870;2023-03-14T08:09:52;99255.16;;;8.54;39.41
46412;BME280;32113;42.012;24.870;2023-03-14T08:12:17;99251.75;;;8.57;39.51
46412;BME280;32113;42.012;24.870;2023-03-14T08:14:43;99255.19;;;8.63;39.10
46412;BME280;32113;42.012;24.870;2023-03-14T08:17:08;99252.66;;;8.79;38.46
46412;BME280;32113;42.012;24.870;2023-03-14T08:19:34;99250.94;;;8.81;38.75
46412;BME280;32113;42.012;24.870;2023-03-14T08:21:59;99247.50;;;8.91;37.94
46412;BME280;32113;42.012;24.870;2023-03-14T08:24:25;99244.97;;;8.98;38.11
46412;BME280;32113;42.012;24.870;2023-03-14T08:26:50;99249.22;;;9.10;37.06
46412;BME280;32113;42.012;24.870;2023-03-14T08:29:15;99241.50;;;9.22;36.96
46412;BME280;32113;42.012;24.870;2023-03-14T08:31:41;99233.81;;;9.25;37.19
46412;BME280;32113;42.012;24.870;2023-03-14T08:34:06;99236.38;;;9.27;36.86
46412;BME280;32113;42.012;24.870;2023-03-14T08:36:32;99234.66;;;9.33;36.98
46412;BME280;32113;42.012;24.870;2023-03-14T08:38:58;99221.84;;;9.43;37.00
46412;BME280;32113;42.012;24.870;2023-03-14T08:41:23;99226.06;;;9.56;35.86
46412;BME280;32113;42.012;24.870;2023-03-14T08:43:49;99220.88;;;9.73;36.43
46412;BME280;32113;42.012;24.870;2023-03-14T08:46:14;99211.41;;;9.86;35.73
46412;BME280;32113;42.012;24.870;2023-03-14T08:48:40;99206.19;;;10.02;35.11
46412;BME280;32113;42.012;24.870;2023-03-14T08:51:10;99204.50;;;9.98;35.25
46412;BME280;32113;42.012;24.870;2023-03-14T08:53:37;99209.53;;;10.18;35.32
46412;BME280;32113;42.012;24.870;2023-03-14T08:56:03;99211.19;;;10.27;34.28
46412;BME280;32113;42.012;24.870;2023-03-14T08:58:30;99200.03;;;10.36;34.14
46412;BME280;32113;42.012;24.870;2023-03-14T09:00:56;99197.41;;;10.48;34.61
46412;BME280;32113;42.012;24.870;2023-03-14T09:03:21;99190.41;;;10.66;33.91
46412;BME280;32113;42.012;24.870;2023-03-14T09:05:49;99176.69;;;10.70;33.57
46412;BME280;32113;42.012;24.870;2023-03-14T09:08:14;99182.53;;;10.86;33.84
46412;BME280;32113;42.012;24.870;2023-03-14T09:10:40;99172.09;;;11.03;33.77
46412;BME280;32113;42.012;24.870;2023-03-14T09:13:05;99170.25;;;11.16;33.25
46412;BME280;32113;42.012;24.870;2023-03-14T09:15:31;99163.41;;;11.15;33.53
46412;BME280;32113;42.012;24.870;2023-03-14T09:17:57;99164.75;;;11.48;33.41
46412;BME280;32113;42.012;24.870;2023-03-14T09:20:23;99148.19;;;11.70;33.16
46412;BME280;32113;42.012;24.870;2023-03-14T09:22:48;99146.38;;;11.80;33.11
46412;BME280;32113;42.012;24.870;2023-03-14T09:25:14;99150.97;;;12.19;32.43
46412;BME280;32113;42.012;24.870;2023-03-14T09:27:39;99133.22;;;12.57;32.21
46412;BME280;32113;42.012;24.870;2023-03-14T09:30:05;99124.84;;;12.93;30.86
46412;BME280;32113;42.012;24.870;2023-03-14T09:32:30;99130.38;;;13.19;30.74
46412;BME280;32113;42.012;24.870;2023-03-14T09:34:57;99118.50;;;13.54;30.42
46412;BME280;32113;42.012;24.870;2023-03-14T09:37:22;99117.50;;;13.61;30.19
46412;BME280;32113;42.012;24.870;2023-03-14T09:39:48;99113.59;;;13.83;29.80
46412;BME280;32113;42.012;24.870;2023-03-14T09:42:16;99111.50;;;14.00;30.12
46412;BME280;32113;42.012;24.870;2023-03-14T09:44:54;99098.22;;;14.16;29.30
46412;BME280;32113;42.012;24.870;2023-03-14T09:47:21;99104.38;;;14.45;28.80
46412;BME280;32113;42.012;24.870;2023-03-14T09:49:48;99094.22;;;14.72;28.94
46412;BME280;32113;42.012;24.870;2023-03-14T09:54:49;99080.16;;;15.14;27.68
46412;BME280;32113;42.012;24.870;2023-03-14T09:57:18;99083.28;;;15.27;27.94
46412;BME280;32113;42.012;24.870;2023-03-14T09:59:46;99085.31;;;15.46;27.75
46412;BME280;32113;42.012;24.870;2023-03-14T10:02:14;99088.59;;;15.51;27.21
46412;BME280;32113;42.012;24.870;2023-03-14T10:04:40;99079.50;;;15.66;27.15
46412;BME280;32113;42.012;24.870;2023-03-14T10:07:23;99074.25;;;15.69;26.75
46412;BME280;32113;42.012;24.870;2023-03-14T10:09:51;99069.72;;;15.76;26.74
46412;BME280;32113;42.012;24.870;2023-03-14T10:12:17;99069.50;;;15.84;26.73
46412;BME280;32113;42.012;24.870;2023-03-14T10:14:49;99060.75;;;15.88;26.84
46412;BME280;32113;42.012;24.870;2023-03-14T10:17:16;99054.09;;;15.81;26.71
46412;BME280;32113;42.012;24.870;2023-03-14T10:19:56;99045.44;;;15.82;26.88
46412;BME280;32113;42.012;24.870;2023-03-14T10:22:25;99039.34;;;15.83;26.84
46412;BME280;32113;42.012;24.870;2023-03-14T10:24:54;99035.59;;;15.92;27.37
46412;BME280;32113;42.012;24.870;2023-03-14T10:27:27;99032.81;;;15.99;26.54
46412;BME280;32113;42.012;24.870;2023-03-14T10:29:54;99019.75;;;16.02;27.13
46412;BME280;32113;42.012;24.870;2023-03-14T10:32:21;99021.34;;;16.07;26.97
46412;BME280;32113;42.012;24.870;2023-03-14T10:37:54;99005.75;;;16.35;26.80
46412;BME280;32113;42.012;24.870;2023-03-14T10:40:27;98994.06;;;16.49;26.50
46412;BME280;32113;42.012;24.870;2023-03-14T10:42:55;98992.41;;;15.95;26.49
46412;BME280;32113;42.012;24.870;2023-03-14T10:45:30;98983.72;;;15.98;26.94
46412;BME280;32113;42.012;24.870;2023-03-14T10:47:59;98975.38;;;16.15;26.86
46412;BME280;32113;42.012;24.870;2023-03-14T10:50:31;98983.31;;;16.34;26.75
46412;BME280;32113;42.012;24.870;2023-03-14T10:53:02;98977.31;;;16.34;26.83
46412;BME280;32113;42.012;24.870;2023-03-14T10:55:44;98964.94;;;16.42;26.73
46412;BME280;32113;42.012;24.870;2023-03-14T10:58:24;98955.66;;;16.60;26.98
46412;BME280;32113;42.012;24.870;2023-03-14T11:01:00;98948.72;;;16.61;26.24
46412;BME280;32113;42.012;24.870;2023-03-14T11:03:31;98948.84;;;16.58;26.26
46412;BME280;32113;42.012;24.870;2023-03-14T11:06:01;98945.91;;;16.67;26.33
46412;BME280;32113;42.012;24.870;2023-03-14T11:09:02;98933.56;;;16.74;26.44
46412;BME280;32113;42.012;24.870;2023-03-14T11:11:31;98930.66;;;16.59;26.44
46412;BME280;32113;42.012;24.870;2023-03-14T11:14:20;98920.28;;;16.59;26.70
46412;BME280;32113;42.012;24.870;2023-03-14T11:17:38;98914.03;;;16.65;26.70
46412;BME280;32113;42.012;24.870;2023-03-14T11:20:58;98907.31;;;16.83;26.43
46412;BME280;32113;42.012;24.870;2023-03-14T11:23:13;98891.47;;;16.91;26.56
46412;BME280;32113;42.012;24.870;2023-03-14T11:25:53;98881.88;;;16.93;25.87
46412;BME280;32113;42.012;24.870;2023-03-14T11:28:41;98869.59;;;16.98;25.87
46412;BME280;32113;42.012;24.870;2023-03-14T11:31:29;98870.00;;;16.65;26.15
46412;BME280;32113;42.012;24.870;2023-03-14T11:36:46;98852.44;;;16.27;26.68
46412;BME280;32113;42.012;24.870;2023-03-14T11:39:16;98847.72;;;16.37;27.50
46412;BME280;32113;42.012;24.870;2023-03-14T11:41:46;98835.78;;;16.57;27.47
46412;BME280;32113;42.012;24.870;2023-03-14T11:44:32;98828.28;;;16.73;26.99
46412;BME280;32113;42.012;24.870;2023-03-14T11:47:12;98830.31;;;16.87;26.56
46412;BME280;32113;42.012;24.870;2023-03-14T11:49:48;98813.63;;;16.94;26.52
46412;BME280;32113;42.012;24.870;2023-03-14T11:54:52;98799.63;;;17.20;27.13
46412;BME280;32113;42.012;24.870;2023-03-14T11:57:21;98790.25;;;17.37;26.83
46412;BME280;32113;42.012;24.870;2023-03-14T12:02:43;98778.47;;;17.51;26.95
46412;BME280;32113;42.012;24.870;2023-03-14T12:13:13;98745.13;;;17.81;27.33
46412;BME280;32113;42.012;24.870;2023-03-14T12:15:50;98733.75;;;17.84;26.30
46412;BME280;32113;42.012;24.870;2023-03-14T12:18:25;98734.59;;;17.46;26.42
46412;BME280;32113;42.012;24.870;2023-03-14T12:20:54;98715.69;;;17.42;27.57
46412;BME280;32113;42.012;24.870;2023-03-14T12:23:21;98709.53;;;17.45;26.91
46412;BME280;32113;42.012;24.870;2023-03-14T12:25:47;98711.19;;;17.48;26.95
46412;BME280;32113;42.012;24.870;2023-03-14T12:30:44;98692.75;;;17.54;27.71
46412;BME280;32113;42.012;24.870;2023-03-14T12:35:43;98678.53;;;17.02;27.15
46412;BME280;32113;42.012;24.870;2023-03-14T12:38:16;98675.75;;;16.22;28.39
46412;BME280;32113;42.012;24.870;2023-03-14T12:43:37;98668.28;;;16.36;28.35
46412;BME280;32113;42.012;24.870;2023-03-14T12:48:32;98662.50;;;16.50;28.28
46412;BME280;32113;42.012;24.870;2023-03-14T12:51:03;98663.41;;;16.28;28.73
46412;BME280;32113;42.012;24.870;2023-03-14T12:59:10;98646.41;;;16.64;28.08
46412;BME280;32113;42.012;24.870;2023-03-14T13:01:47;98649.44;;;16.74;28.47
46412;BME280;32113;42.012;24.870;2023-03-14T13:04:13;98638.78;;;16.82;28.16
46412;BME280;32113;42.012;24.870;2023-03-14T13:12:14;98632.09;;;17.18;27.73
46412;BME280;32113;42.012;24.870;2023-03-14T13:14:45;98633.13;;;17.14;27.50
46412;BME280;32113;42.012;24.870;2023-03-14T13:17:12;98626.53;;;17.06;27.36
46412;BME280;32113;42.012;24.870;2023-03-14T13:19:38;98632.50;;;17.09;27.79
46412;BME280;32113;42.012;24.870;2023-03-14T13:22:20;98633.06;;;17.15;27.63
46412;BME280;32113;42.012;24.870;2023-03-14T13:24:46;98626.75;;;17.21;27.46
46412;BME280;32113;42.012;24.870;2023-03-14T13:27:19;98614.16;;;17.32;27.38
46412;BME280;32113;42.012;24.870;2023-03-14T13:29:48;98620.69;;;17.22;26.91
46412;BME280;32113;42.012;24.870;2023-03-14T13:32:20;98609.09;;;17.29;26.79
46412;BME280;32113;42.012;24.870;2023-03-14T13:34:46;98611.63;;;17.31;26.60
46412;BME280;32113;42.012;24.870;2023-03-14T13:37:22;98613.31;;;17.13;26.67
46412;BME280;32113;42.012;24.870;2023-03-14T13:39:56;98601.13;;;17.15;27.17
46412;BME280;32113;42.012;24.870;2023-03-14T13:42:26;98596.44;;;17.23;27.50
46412;BME280;32113;42.012;24.870;2023-03-14T13:44:53;98591.75;;;17.31;26.95
46412;BME280;32113;42.012;24.870;2023-03-14T13:47:22;98585.03;;;17.27;26.07
46412;BME280;32113;42.012;24.870;2023-03-14T13:49:49;98580.66;;;17.28;26.56